METAR Data
IDs: Format: Raw Decoded Include TAF

Data at: 1420 UTC 10 Aug 2022

KCRQ 101353Z 25003KT 9SM CLR 22/19 A2997 RMK AO2 SLP146 T02170194 $
KCRQ 101253Z AUTO 00000KT 10SM CLR 22/19 A2995 RMK AO2 SLP139 T02170189 $
KCRQ 101153Z AUTO 00000KT 10SM CLR 22/19 A2995 RMK AO2 SLP137 T02170189 10228 20217 57004 $
KCRQ 101053Z AUTO 00000KT 10SM CLR 22/19 A2995 RMK AO2 SLP138 T02220194 $
KCRQ 100953Z AUTO 00000KT 10SM CLR 22/19 A2995 RMK AO2 SLP139 T02220194 $
KCRQ 100853Z AUTO 00000KT 10SM CLR 22/20 A2996 RMK AO2 SLP141 T02170200 58004 $
KCRQ 100753Z AUTO 00000KT 10SM CLR 22/19 A2996 RMK AO2 SLP143 T02220194 402780211 $
KCRQ 100653Z AUTO 00000KT 10SM CLR 22/19 A2997 RMK AO2 SLP145 T02220194 $
KCRQ 100553Z AUTO 00000KT 10SM CLR 22/19 A2997 RMK AO2 SLP145 T02220194 10278 20222 51016 $
KCRQ 100453Z 00000KT 10SM CLR 22/19 A2997 RMK AO2 SLP144 T02220194 $
KCRQ 100353Z 25004KT 10SM CLR 23/20 A2994 RMK AO2 SLP135 T02280200 $
KCRQ 100253Z 24004KT 10SM CLR 23/19 A2992 RMK AO2 SLP128 T02280194 53007 $
KCRQ 100153Z VRB05KT 10SM CLR 24/19 A2990 RMK AO2 SLP122 T02440189 $
KCRQ 100053Z 25006KT 10SM CLR 27/16 A2990 RMK AO2 SLP120 T02670156
KCRQ 092353Z 25007KT 10SM CLR 28/14 A2990 RMK AO2 SLP121 T02780139 10278 20250 56010
KCRQ 092253Z 23005KT 10SM CLR 27/16 A2990 RMK AO2 SLP122 T02720156
KCRQ 092153Z 25007KT 10SM CLR 26/17 A2992 RMK AO2 SLP126 T02610172
KCRQ 092053Z 26008KT 10SM CLR 26/19 A2993 RMK AO2 SLP131 T02560189 58004
KCRQ 091953Z 25009KT 10SM CLR 26/19 A2993 RMK AO2 SLP133 T02610189
KCRQ 091853Z 26007KT 10SM CLR 26/19 A2994 RMK AO2 SLP136 T02560189 $
KCRQ 091753Z CLR 25/19 A2994 RMK AO2 SLP135 T02500194 10261 20211 51001 $
KCRQ 091701Z 26005KT 10SM FEW004 26/21 A2994 RMK AO2 T02610211 $
KCRQ 091653Z AUTO VRB04KT 9SM CLR 26/19 A2994 RMK AO2 SLP134 T02560194 PWINO $
KCRQ 091553Z AUTO 27004KT 10SM CLR 24/19 A2995 RMK AO2 SLP138 T02390194
KCRQ 091453Z AUTO VRB03KT 10SM CLR 23/19 A2994 RMK AO2 SLP135 T02280194 53014
KCRQ 091353Z AUTO 00000KT 10SM CLR 21/19 A2992 RMK AO2 SLP129 T02110194
KCRQ 091253Z AUTO 20003KT 10SM CLR 21/19 A2991 RMK AO2 SLP123 T02110194
KCRQ 091153Z AUTO 00000KT 10SM CLR 22/19 A2990 RMK AO2 SLP120 T02170194 10228 20211 55001
KCRQ 091053Z AUTO 00000KT 10SM CLR 22/19 A2989 RMK AO2 SLP119 T02170194
KCRQ 090953Z AUTO 00000KT 10SM CLR 22/20 A2989 RMK AO2 SLP119 T02170200
KCRQ 090853Z AUTO 00000KT 10SM CLR 22/19 A2990 RMK AO2 SLP121 T02170194 58011
KCRQ 090753Z AUTO 00000KT 10SM CLR 22/19 A2991 RMK AO2 SLP125 T02220189 402670194
KCRQ 090653Z AUTO 25003KT 10SM CLR 23/19 A2993 RMK AO2 SLP131 T02280189
KCRQ 090553Z AUTO 22003KT 10SM CLR 22/19 A2993 RMK AO2 SLP133 60000 T02220189 10256 20222 53008
KCRQ 090453Z 24004KT 10SM FEW065 22/19 A2992 RMK AO2 RAB0359E35 SLP129 P0000 T02220194
KCRQ 090353Z 00000KT 10SM CLR 23/18 A2992 RMK AO2 SLP127 T02280178
KCRQ 090253Z VRB04KT 10SM CLR 23/18 A2991 RMK AO2 SLP124 T02330178 53009